createdAt,value
2023-05-01T00:03:23.268Z,15.83
2023-05-01T00:08:26.208Z,19.80
2023-05-01T00:13:29.020Z,15.73
2023-05-01T00:18:33.480Z,12.10
2023-05-01T00:23:37.686Z,9.82
2023-05-01T00:28:40.384Z,10.57
2023-05-01T00:33:45.765Z,9.23
2023-05-01T00:38:49.781Z,9.10
2023-05-01T00:43:53.998Z,9.57
2023-05-01T00:48:59.664Z,11.23
2023-05-01T00:54:03.037Z,10.30
2023-05-01T00:59:08.239Z,10.68
2023-05-01T01:04:11.157Z,10.38
2023-05-01T01:10:00.719Z,10.13
2023-05-01T01:15:19.696Z,11.05
2023-05-01T01:20:35.349Z,10.75
2023-05-01T01:25:50.435Z,11.15
2023-05-01T01:31:15.592Z,12.60
2023-05-01T01:36:28.327Z,10.02
2023-05-01T01:41:36.403Z,9.70
2023-05-01T01:46:41.652Z,11.35
2023-05-01T01:51:46.047Z,11.77
2023-05-01T01:56:52.233Z,9.60
2023-05-01T02:01:55.629Z,10.15
2023-05-01T02:06:59.053Z,9.82
2023-05-01T02:12:03.135Z,10.48
2023-05-01T02:17:08.043Z,11.40
2023-05-01T02:22:11.230Z,10.88
2023-05-01T02:27:24.631Z,9.75
2023-05-01T02:32:28.928Z,10.68
2023-05-01T02:37:32.612Z,10.27
2023-05-01T02:42:38.404Z,11.68
2023-05-01T02:47:42.925Z,11.43
2023-05-01T02:52:46.656Z,10.80
2023-05-01T02:58:17.220Z,10.32
2023-05-01T03:03:23.143Z,7.70
2023-05-01T03:08:26.137Z,12.50
2023-05-01T03:13:33.811Z,10.93
2023-05-01T03:18:36.559Z,10.88
2023-05-01T03:23:39.458Z,10.43
2023-05-01T03:28:42.292Z,9.67
2023-05-01T03:33:46.168Z,9.77
2023-05-01T03:38:51.579Z,10.00
2023-05-01T03:44:03.328Z,11.20
2023-05-01T03:49:13.923Z,9.38
2023-05-01T03:54:22.512Z,10.50
2023-05-01T03:59:51.823Z,10.88
2023-05-01T04:04:55.434Z,10.88
2023-05-01T04:09:58.701Z,9.80
2023-05-01T04:15:03.018Z,7.32
2023-05-01T04:20:11.310Z,10.40
2023-05-01T04:25:14.523Z,8.65
2023-05-01T04:30:17.970Z,8.63
2023-05-01T04:35:22.571Z,9.05
2023-05-01T04:40:25.772Z,8.70
2023-05-01T04:45:31.031Z,8.77
2023-05-01T04:50:35.689Z,8.48
2023-05-01T04:55:40.750Z,7.60
2023-05-01T05:00:49.244Z,7.10
2023-05-01T05:05:56.772Z,7.82
2023-05-01T05:11:01.776Z,7.30
2023-05-01T05:16:21.014Z,7.78
2023-05-01T05:21:25.007Z,6.50
2023-05-01T05:26:31.409Z,6.28
2023-05-01T05:31:38.057Z,6.93
2023-05-01T05:36:41.361Z,6.63
2023-05-01T05:41:44.809Z,6.30
2023-05-01T05:46:47.970Z,6.85
2023-05-01T05:52:03.163Z,6.10
2023-05-01T05:57:05.958Z,6.70
2023-05-01T06:02:10.823Z,6.05
2023-05-01T06:07:14.098Z,5.68
2023-05-01T06:12:17.329Z,6.43
2023-05-01T06:17:20.728Z,6.00
2023-05-01T06:22:25.125Z,6.30
2023-05-01T06:27:36.873Z,6.28
2023-05-01T06:32:46.064Z,6.45
2023-05-01T06:37:54.754Z,6.20
2023-05-01T06:42:58.575Z,6.65
2023-05-01T06:48:07.311Z,7.03
2023-05-01T06:53:12.753Z,7.22
2023-05-01T07:03:28.077Z,6.72
2023-05-01T07:08:31.203Z,6.30
2023-05-01T07:13:33.971Z,6.22
2023-05-01T07:23:46.683Z,7.03
2023-05-01T07:28:49.742Z,6.70
2023-05-01T07:33:54.299Z,7.07
2023-05-01T07:38:58.129Z,8.57
2023-05-01T07:44:01.162Z,7.10
2023-05-01T07:49:04.557Z,8.30
2023-05-01T07:54:07.250Z,7.93
2023-05-01T07:59:16.046Z,7.07
2023-05-01T08:04:19.292Z,7.00
2023-05-01T08:09:22.331Z,7.32
2023-05-01T08:14:25.258Z,6.93
2023-05-01T08:19:29.737Z,7.47
2023-05-01T08:24:33.197Z,6.43
2023-05-01T08:29:38.245Z,7.05
2023-05-01T08:34:43.483Z,7.10
2023-05-01T08:39:46.416Z,6.70
2023-05-01T08:44:52.598Z,6.60
2023-05-01T08:50:01.871Z,6.75
2023-05-01T08:55:16.104Z,8.82
2023-05-01T09:00:21.356Z,7.57
2023-05-01T09:05:24.384Z,5.88
2023-05-01T09:10:27.826Z,6.10
2023-05-01T09:15:34.308Z,5.85
2023-05-01T09:20:39.700Z,5.53
2023-05-01T09:25:43.386Z,5.00
2023-05-01T09:30:49.151Z,5.47
2023-05-01T09:36:03.158Z,5.63
2023-05-01T09:41:06.691Z,4.20
2023-05-01T09:46:13.338Z,4.38
2023-05-01T09:51:30.374Z,3.97
2023-05-01T09:56:34.500Z,4.18
2023-05-01T10:01:42.980Z,4.43
2023-05-01T10:06:46.388Z,4.10
2023-05-01T10:11:53.892Z,3.88
2023-05-01T10:16:59.973Z,5.32
2023-05-01T10:22:04.289Z,5.13
2023-05-01T10:27:08.101Z,22.95
2023-05-01T10:32:11.459Z,8.77
2023-05-01T10:37:25.072Z,15.15
2023-05-01T10:42:28.978Z,5.53
2023-05-01T10:47:32.693Z,4.43
2023-05-01T10:53:14.774Z,4.80
2023-05-01T10:58:42.941Z,4.60
2023-05-01T11:03:45.992Z,5.07
2023-05-01T11:08:51.904Z,5.20
2023-05-01T11:14:12.778Z,5.32
2023-05-01T11:19:22.241Z,5.35
2023-05-01T11:24:36.552Z,4.45
2023-05-01T11:29:39.303Z,5.22
2023-05-01T11:34:46.095Z,5.35
2023-05-01T11:39:51.716Z,5.07
2023-05-01T11:45:12.987Z,5.45
2023-05-01T11:50:17.274Z,5.78
2023-05-01T11:55:22.325Z,5.85
2023-05-01T12:00:30.240Z,4.72
2023-05-01T12:05:37.509Z,4.75
2023-05-01T12:10:46.756Z,4.90
2023-05-01T12:15:53.202Z,4.80
2023-05-01T12:20:57.000Z,4.80
2023-05-01T12:26:00.536Z,4.30
2023-05-01T12:31:05.464Z,4.82
2023-05-01T12:36:11.496Z,4.28
2023-05-01T12:41:16.311Z,5.22
2023-05-01T12:46:20.352Z,4.68
2023-05-01T12:51:24.239Z,5.25
2023-05-01T12:56:28.007Z,6.30
2023-05-01T13:01:34.974Z,5.18
2023-05-01T13:06:37.821Z,5.13
2023-05-01T13:12:08.800Z,4.80
2023-05-01T13:17:30.002Z,5.10
2023-05-01T13:22:38.999Z,5.13
2023-05-01T13:27:42.495Z,5.20
2023-05-01T13:32:46.738Z,4.57
2023-05-01T13:37:51.008Z,5.72
2023-05-01T13:42:55.267Z,5.95
2023-05-01T13:47:58.560Z,7.00
2023-05-01T13:53:03.753Z,6.18
2023-05-01T13:58:13.930Z,7.03
2023-05-01T14:03:17.030Z,4.90
2023-05-01T14:08:27.863Z,5.53
2023-05-01T14:13:33.889Z,4.50
2023-05-01T14:18:45.648Z,4.70
2023-05-01T14:23:49.320Z,9.80
2023-05-01T14:28:52.726Z,7.70
2023-05-01T14:34:02.622Z,4.97
2023-05-01T14:39:10.002Z,4.57
2023-05-01T14:44:18.638Z,4.80
2023-05-01T14:49:23.025Z,4.82
2023-05-01T14:54:25.781Z,4.35
2023-05-01T14:59:33.280Z,4.43
2023-05-01T15:04:36.771Z,3.88
2023-05-01T15:09:43.069Z,4.00
2023-05-01T15:14:46.139Z,3.75
2023-05-01T15:19:48.964Z,3.88
2023-05-01T15:24:52.397Z,3.88
2023-05-01T15:29:55.341Z,3.92
2023-05-01T15:34:58.618Z,3.50
2023-05-01T15:40:01.666Z,3.30
2023-05-01T15:45:06.559Z,3.22
2023-05-01T15:50:13.060Z,3.40
2023-05-01T15:55:18.561Z,3.05
2023-05-01T16:00:22.496Z,3.22
2023-05-01T16:05:25.787Z,3.30
2023-05-01T16:10:28.746Z,3.63
2023-05-01T16:15:32.673Z,3.40
2023-05-01T16:20:40.018Z,3.28
2023-05-01T16:25:43.738Z,3.55
2023-05-01T16:30:49.311Z,6.10
2023-05-01T16:35:52.652Z,3.50
2023-05-01T16:45:59.107Z,3.65
2023-05-01T16:56:09.352Z,3.70
2023-05-01T17:01:12.735Z,3.33
2023-05-01T17:06:16.486Z,3.53
2023-05-01T17:11:19.567Z,3.30
2023-05-01T17:16:22.371Z,3.33
2023-05-01T17:21:36.274Z,3.05
2023-05-01T17:26:45.589Z,3.63
2023-05-01T17:31:48.629Z,4.68
2023-05-01T17:36:51.428Z,11.32
2023-05-01T17:41:54.736Z,11.32
2023-05-01T17:46:58.974Z,8.90
2023-05-01T17:52:03.055Z,12.27
2023-05-01T17:57:07.179Z,11.80
2023-05-01T18:02:12.866Z,12.50
2023-05-01T18:07:16.179Z,19.00
2023-05-01T18:12:21.566Z,16.20
2023-05-01T18:17:24.534Z,11.40
2023-05-01T18:22:29.079Z,6.90
2023-05-01T18:27:37.697Z,6.05
2023-05-01T18:32:48.838Z,6.45
2023-05-01T18:37:51.926Z,5.32
2023-05-01T18:42:54.581Z,5.05
2023-05-01T18:47:57.241Z,5.38
2023-05-01T18:53:00.082Z,6.80
2023-05-01T18:58:02.878Z,9.23
2023-05-01T19:03:05.554Z,9.63
2023-05-01T19:08:09.279Z,15.30
2023-05-01T19:13:12.515Z,12.93
2023-05-01T19:18:16.439Z,17.77
2023-05-01T19:23:19.359Z,28.55
2023-05-01T19:28:21.899Z,22.87
2023-05-01T19:33:29.296Z,19.63
2023-05-01T19:38:31.962Z,18.40
2023-05-01T19:43:34.617Z,17.10
2023-05-01T19:48:37.366Z,17.73
2023-05-01T19:53:39.933Z,13.67
2023-05-01T19:58:42.486Z,10.67
2023-05-01T20:03:45.524Z,24.07
2023-05-01T20:08:48.558Z,22.48
2023-05-01T20:13:51.537Z,17.88
2023-05-01T20:18:54.041Z,17.52
2023-05-01T20:23:59.399Z,16.85
2023-05-01T20:29:02.109Z,13.07
2023-05-01T20:34:12.311Z,22.05
2023-05-01T20:39:16.037Z,25.08
2023-05-01T20:44:18.565Z,27.17
2023-05-01T20:49:23.140Z,32.83
2023-05-01T20:54:25.826Z,25.88
2023-05-01T20:59:29.888Z,20.47
2023-05-01T21:04:32.718Z,13.88
2023-05-01T21:09:36.334Z,11.85
2023-05-01T21:14:39.620Z,10.73
2023-05-01T21:19:44.988Z,9.10
2023-05-01T21:24:57.045Z,8.80
2023-05-01T21:30:01.443Z,8.00
2023-05-01T21:35:04.495Z,7.65
2023-05-01T21:40:07.636Z,7.37
2023-05-01T21:45:13.287Z,8.35
2023-05-01T21:50:17.478Z,8.30
2023-05-01T21:55:21.877Z,9.15
2023-05-01T22:00:25.009Z,9.73
2023-05-01T22:05:31.174Z,7.97
2023-05-01T22:10:33.625Z,7.22
2023-05-01T22:15:36.058Z,8.15
2023-05-01T22:20:38.583Z,9.43
2023-05-01T22:25:41.207Z,8.93
2023-05-01T22:30:44.597Z,9.10
2023-05-01T22:35:47.060Z,9.30
2023-05-01T22:40:49.531Z,13.93
2023-05-01T22:45:52.017Z,23.75
2023-05-01T22:50:54.594Z,31.70
2023-05-01T22:56:01.474Z,26.10
2023-05-01T23:01:04.097Z,27.50
2023-05-01T23:06:07.309Z,19.45
2023-05-01T23:11:16.890Z,20.95
2023-05-01T23:16:23.596Z,16.58
2023-05-01T23:21:28.330Z,14.30
2023-05-01T23:26:31.145Z,13.23
2023-05-01T23:31:34.085Z,11.73
2023-05-01T23:36:37.904Z,12.52
2023-05-01T23:41:41.776Z,11.80
2023-05-01T23:46:44.797Z,13.50
2023-05-01T23:51:49.978Z,12.50
2023-05-01T23:56:57.640Z,11.38
